createdAt,value
2019-04-10T00:01:17.789Z,0.70
2019-04-10T00:03:44.397Z,0.70
2019-04-10T00:06:10.796Z,0.70
2019-04-10T00:08:37.316Z,0.70
2019-04-10T00:11:04.736Z,0.70
2019-04-10T00:13:31.330Z,0.70
2019-04-10T00:15:59.021Z,0.60
2019-04-10T00:18:26.299Z,0.70
2019-04-10T00:20:53.175Z,0.60
2019-04-10T00:23:19.765Z,0.60
2019-04-10T00:25:46.121Z,0.70
2019-04-10T00:28:12.735Z,0.60
2019-04-10T00:30:39.202Z,0.60
2019-04-10T00:33:05.784Z,0.70
2019-04-10T00:35:32.457Z,0.70
2019-04-10T00:37:59.555Z,0.70
2019-04-10T00:40:26.097Z,0.70
2019-04-10T00:42:53.708Z,0.70
2019-04-10T00:45:20.037Z,0.60
2019-04-10T00:47:46.423Z,0.60
2019-04-10T00:50:13.060Z,0.60
2019-04-10T00:52:40.644Z,0.70
2019-04-10T00:55:07.806Z,0.70
2019-04-10T00:57:34.174Z,0.70
2019-04-10T01:00:00.892Z,0.60
2019-04-10T01:02:27.370Z,0.60
2019-04-10T01:04:53.713Z,0.60
2019-04-10T01:07:32.625Z,0.50
2019-04-10T01:09:48.579Z,0.60
2019-04-10T01:12:16.012Z,0.60
2019-04-10T01:14:42.433Z,0.70
2019-04-10T01:17:10.009Z,0.70
2019-04-10T01:19:36.502Z,0.70
2019-04-10T01:22:03.137Z,0.60
2019-04-10T01:24:30.012Z,0.60
2019-04-10T01:26:56.496Z,0.60
2019-04-10T01:29:23.063Z,0.70
2019-04-10T01:31:49.479Z,0.70
2019-04-10T01:34:17.009Z,0.70
2019-04-10T01:36:43.894Z,0.70
2019-04-10T01:39:12.253Z,0.70
2019-04-10T01:41:40.435Z,0.70
2019-04-10T01:44:07.631Z,0.70
2019-04-10T01:46:36.003Z,0.80
2019-04-10T01:49:02.523Z,0.80
2019-04-10T01:51:29.020Z,0.80
2019-04-10T01:53:55.410Z,0.80
2019-04-10T01:56:28.542Z,0.90
2019-04-10T01:58:51.593Z,0.80
2019-04-10T02:01:20.697Z,0.80
2019-04-10T02:03:47.142Z,0.80
2019-04-10T02:06:13.734Z,0.80
2019-04-10T02:08:40.349Z,0.70
2019-04-10T02:11:08.914Z,0.70
2019-04-10T02:13:36.634Z,0.80
2019-04-10T02:16:03.139Z,0.80
2019-04-10T02:18:29.654Z,0.80
2019-04-10T02:20:56.068Z,0.80
2019-04-10T02:23:22.596Z,0.80
2019-04-10T02:25:49.390Z,0.70
2019-04-10T02:28:15.812Z,0.70
2019-04-10T02:30:43.746Z,0.80
2019-04-10T02:33:10.767Z,0.60
2019-04-10T02:35:37.972Z,0.70
2019-04-10T02:38:22.995Z,0.60
2019-04-10T02:40:33.242Z,0.70
2019-04-10T02:42:59.883Z,0.70
2019-04-10T02:45:26.721Z,0.70
2019-04-10T02:47:53.027Z,0.60
2019-04-10T02:50:20.773Z,0.60
2019-04-10T02:52:50.850Z,0.60
2019-04-10T02:55:18.695Z,0.60
2019-04-10T02:57:45.925Z,0.60
2019-04-10T03:00:14.034Z,0.60
2019-04-10T03:02:41.577Z,0.60
2019-04-10T03:05:09.352Z,0.60
2019-04-10T03:07:36.450Z,0.60
2019-04-10T03:10:15.218Z,0.60
2019-04-10T03:12:34.112Z,0.70
2019-04-10T03:15:01.127Z,0.60
2019-04-10T03:17:28.786Z,0.60
2019-04-10T03:19:56.078Z,0.70
2019-04-10T03:22:22.890Z,0.70
2019-04-10T03:24:50.663Z,0.70
2019-04-10T03:27:19.072Z,0.70
2019-04-10T03:29:46.388Z,0.80
2019-04-10T03:32:36.282Z,0.80
2019-04-10T03:35:01.216Z,0.80
2019-04-10T03:37:28.527Z,0.90
2019-04-10T03:39:55.247Z,0.80
2019-04-10T03:42:21.791Z,0.80
2019-04-10T03:44:49.152Z,0.80
2019-04-10T03:47:15.678Z,0.80
2019-04-10T03:49:42.250Z,0.80
2019-04-10T03:52:09.991Z,0.80
2019-04-10T03:54:37.455Z,0.90
2019-04-10T03:57:04.640Z,0.90
2019-04-10T03:59:31.127Z,0.80
2019-04-10T04:01:57.543Z,0.80
2019-04-10T04:04:24.053Z,0.80
2019-04-10T04:06:50.473Z,0.80
2019-04-10T04:09:17.648Z,0.80
2019-04-10T04:11:44.165Z,0.70
2019-04-10T04:14:10.832Z,0.80
2019-04-10T04:16:40.134Z,0.80
2019-04-10T04:19:06.507Z,0.90
2019-04-10T04:21:33.925Z,0.90
2019-04-10T04:24:01.445Z,0.80
2019-04-10T04:26:28.224Z,0.90
2019-04-10T04:28:55.648Z,0.90
2019-04-10T04:31:22.891Z,0.80
2019-04-10T04:33:49.335Z,0.80
2019-04-10T04:36:16.020Z,0.80
2019-04-10T04:38:43.188Z,0.90
2019-04-10T04:41:09.720Z,0.90
2019-04-10T04:43:37.091Z,0.90
2019-04-10T04:46:03.654Z,0.90
2019-04-10T04:48:30.110Z,0.90
2019-04-10T04:50:56.710Z,0.80
2019-04-10T04:53:23.672Z,0.80
2019-04-10T04:55:51.286Z,0.80
2019-04-10T04:58:20.299Z,0.90
2019-04-10T05:00:46.824Z,0.90
2019-04-10T05:03:14.708Z,0.90
2019-04-10T05:05:41.231Z,1.00
2019-04-10T05:08:08.451Z,1.00
2019-04-10T05:10:35.705Z,1.00
2019-04-10T05:13:02.341Z,0.90
2019-04-10T05:15:29.046Z,0.90
2019-04-10T05:17:55.598Z,0.90
2019-04-10T05:20:22.061Z,0.90
2019-04-10T05:22:49.212Z,1.00
2019-04-10T05:25:16.891Z,1.00
2019-04-10T05:27:43.505Z,0.90
2019-04-10T05:30:10.911Z,0.90
2019-04-10T05:32:37.674Z,1.00
2019-04-10T05:35:07.396Z,1.00
2019-04-10T05:37:33.842Z,1.10
2019-04-10T05:40:01.104Z,1.10
2019-04-10T05:42:28.875Z,1.10
2019-04-10T05:44:56.440Z,1.20
2019-04-10T05:47:22.970Z,1.30
2019-04-10T05:49:49.397Z,1.10
2019-04-10T05:52:15.773Z,1.10
2019-04-10T05:54:43.741Z,1.20
2019-04-10T05:57:10.415Z,1.20
2019-04-10T05:59:36.750Z,1.10
2019-04-10T06:02:03.440Z,1.00
2019-04-10T06:04:29.782Z,1.10
2019-04-10T06:06:56.867Z,1.20
2019-04-10T06:09:23.462Z,1.10
2019-04-10T06:11:50.058Z,1.10
2019-04-10T06:14:17.706Z,1.10
2019-04-10T06:16:44.709Z,1.20
2019-04-10T06:19:11.457Z,1.20
2019-04-10T06:21:37.921Z,1.20
2019-04-10T06:24:05.720Z,1.10
2019-04-10T06:26:32.605Z,1.10
2019-04-10T06:28:59.275Z,1.20
2019-04-10T06:31:25.677Z,1.40
2019-04-10T06:33:52.764Z,1.20
2019-04-10T06:36:19.529Z,1.20
2019-04-10T06:38:45.961Z,1.10
2019-04-10T06:41:13.739Z,1.20
2019-04-10T06:43:41.233Z,1.20
2019-04-10T06:46:08.359Z,1.20
2019-04-10T06:48:34.685Z,1.20
2019-04-10T06:51:02.084Z,1.10
2019-04-10T06:53:28.941Z,1.20
2019-04-10T06:55:56.462Z,1.10
2019-04-10T06:58:23.689Z,1.10
2019-04-10T07:00:53.219Z,1.10
2019-04-10T07:03:18.939Z,1.10
2019-04-10T07:06:00.442Z,1.10
2019-04-10T07:08:17.298Z,1.00
2019-04-10T07:10:51.983Z,1.10
2019-04-10T07:13:13.060Z,1.20
2019-04-10T07:15:41.365Z,1.20
2019-04-10T07:18:11.877Z,1.00
2019-04-10T07:20:36.104Z,1.20
2019-04-10T07:23:03.075Z,1.20
2019-04-10T07:25:29.896Z,1.30
2019-04-10T07:27:56.432Z,1.30
2019-04-10T07:30:26.104Z,1.30
2019-04-10T07:32:51.281Z,1.20
2019-04-10T07:35:20.289Z,1.20
2019-04-10T07:37:46.565Z,1.30
2019-04-10T07:40:14.246Z,1.20
2019-04-10T07:42:42.988Z,1.30
2019-04-10T07:45:10.817Z,1.20
2019-04-10T07:47:37.996Z,1.10
2019-04-10T07:50:08.261Z,1.10
2019-04-10T07:52:34.904Z,1.10
2019-04-10T07:55:01.835Z,1.20
2019-04-10T07:57:28.695Z,1.30
2019-04-10T07:59:55.151Z,1.40
2019-04-10T08:02:21.587Z,1.30
2019-04-10T08:04:47.942Z,1.20
2019-04-10T08:07:24.966Z,1.30
2019-04-10T08:09:43.076Z,1.20
2019-04-10T08:12:09.943Z,1.30
2019-04-10T08:14:36.450Z,1.30
2019-04-10T08:17:03.749Z,1.30
2019-04-10T08:19:30.417Z,1.30
2019-04-10T08:22:03.632Z,1.10
2019-04-10T08:24:29.683Z,1.20
2019-04-10T08:26:57.032Z,1.10
2019-04-10T08:29:23.890Z,1.20
2019-04-10T08:31:50.455Z,1.00
2019-04-10T08:34:17.281Z,1.10
2019-04-10T08:36:43.995Z,1.10
2019-04-10T08:39:10.978Z,1.10
2019-04-10T08:41:37.633Z,1.10
2019-04-10T08:44:04.446Z,1.20
2019-04-10T08:46:31.060Z,1.30
2019-04-10T08:48:58.132Z,1.30
2019-04-10T08:51:25.524Z,1.40
2019-04-10T08:53:54.169Z,1.40
2019-04-10T08:56:20.509Z,1.40
2019-04-10T08:58:48.246Z,1.60
2019-04-10T09:01:15.402Z,1.50
2019-04-10T09:03:41.901Z,1.50
2019-04-10T09:06:09.275Z,1.40
2019-04-10T09:08:37.043Z,1.30
2019-04-10T09:11:03.591Z,1.40
2019-04-10T09:13:30.689Z,1.40
2019-04-10T09:15:58.256Z,1.30
2019-04-10T09:18:25.217Z,1.30
2019-04-10T09:20:51.723Z,1.40
2019-04-10T09:23:28.889Z,1.30
2019-04-10T09:25:47.002Z,1.40
2019-04-10T09:28:14.043Z,1.30
2019-04-10T09:30:40.773Z,1.20
2019-04-10T09:33:18.730Z,1.30
2019-04-10T09:35:36.296Z,1.30
2019-04-10T09:38:02.830Z,1.40
2019-04-10T09:40:30.047Z,1.50
2019-04-10T09:42:57.661Z,1.50
2019-04-10T09:45:25.135Z,1.50
2019-04-10T09:47:52.319Z,1.40
2019-04-10T09:50:19.349Z,1.50
2019-04-10T09:52:46.242Z,1.30
2019-04-10T09:55:13.759Z,1.50
2019-04-10T09:57:40.890Z,1.60
2019-04-10T10:00:07.846Z,1.60
2019-04-10T10:02:34.331Z,1.60
2019-04-10T10:05:00.689Z,1.60
2019-04-10T10:07:27.093Z,1.50
2019-04-10T10:09:54.882Z,1.50
2019-04-10T10:12:21.958Z,1.60
2019-04-10T10:14:48.448Z,1.50
2019-04-10T10:17:14.968Z,1.50
2019-04-10T10:19:42.519Z,1.50
2019-04-10T10:22:09.361Z,1.60
2019-04-10T10:24:36.034Z,1.50
2019-04-10T10:27:02.475Z,1.60
2019-04-10T10:29:30.033Z,1.70
2019-04-10T10:31:56.945Z,1.60
2019-04-10T10:34:23.446Z,1.60
2019-04-10T10:36:52.874Z,1.60
2019-04-10T10:39:19.024Z,1.70
2019-04-10T10:41:46.719Z,1.60
2019-04-10T10:44:13.409Z,1.60
2019-04-10T10:46:40.177Z,1.80
2019-04-10T10:49:06.769Z,1.70
2019-04-10T10:51:33.035Z,1.80
2019-04-10T10:54:01.426Z,1.70
2019-04-10T10:56:28.639Z,1.80
2019-04-10T10:58:57.806Z,1.80
2019-04-10T11:01:24.137Z,1.90
2019-04-10T11:03:50.842Z,1.90
2019-04-10T11:06:17.813Z,1.90
2019-04-10T11:08:44.286Z,2.00
2019-04-10T11:11:10.582Z,2.00
2019-04-10T11:13:37.210Z,1.90
2019-04-10T11:16:05.691Z,1.90
2019-04-10T11:18:32.737Z,2.10
2019-04-10T11:21:04.683Z,2.10
2019-04-10T11:23:28.479Z,2.20
2019-04-10T11:25:55.875Z,2.10
2019-04-10T11:28:28.665Z,2.40
2019-04-10T11:30:53.481Z,2.40
2019-04-10T11:33:19.741Z,2.00
2019-04-10T11:35:46.097Z,2.10
2019-04-10T11:38:13.368Z,1.80
2019-04-10T11:40:41.428Z,2.00
2019-04-10T11:43:08.022Z,2.00
2019-04-10T11:45:41.456Z,1.90
2019-04-10T11:48:02.971Z,1.90
2019-04-10T11:50:29.983Z,1.90
2019-04-10T11:52:59.737Z,2.00
2019-04-10T11:55:27.360Z,2.00
2019-04-10T11:57:54.712Z,1.90
2019-04-10T12:00:46.676Z,2.00
2019-04-10T12:03:08.788Z,1.90
2019-04-10T12:05:36.098Z,2.10
2019-04-10T12:08:28.099Z,2.30
2019-04-10T12:12:57.852Z,2.00
2019-04-10T12:15:24.490Z,1.90
2019-04-10T12:17:51.954Z,2.00
2019-04-10T12:20:18.767Z,1.90
2019-04-10T12:22:46.183Z,2.00
2019-04-10T12:25:14.480Z,1.90
2019-04-10T12:27:41.237Z,2.00
2019-04-10T12:30:11.139Z,2.20
2019-04-10T12:32:38.879Z,2.40
2019-04-10T12:35:06.752Z,2.10
2019-04-10T12:37:33.353Z,2.10
2019-04-10T12:39:59.626Z,2.20
2019-04-10T12:42:26.163Z,2.10
2019-04-10T12:44:52.517Z,2.20
2019-04-10T12:47:19.042Z,2.20
2019-04-10T12:49:45.656Z,2.20
2019-04-10T12:52:12.277Z,2.40
2019-04-10T12:54:40.467Z,2.50
2019-04-10T12:57:07.065Z,2.50
2019-04-10T12:59:33.689Z,2.40
2019-04-10T13:02:00.723Z,2.10
2019-04-10T13:04:28.149Z,1.80
2019-04-10T13:06:54.847Z,2.00
2019-04-10T13:09:22.170Z,2.10
2019-04-10T13:11:48.948Z,1.80
2019-04-10T13:14:15.400Z,1.90
2019-04-10T13:16:42.847Z,2.10
2019-04-10T13:19:09.326Z,2.10
2019-04-10T13:21:36.788Z,2.10
2019-04-10T13:24:03.653Z,2.20
2019-04-10T13:26:30.128Z,2.00
2019-04-10T13:28:56.434Z,2.20
2019-04-10T13:31:23.565Z,2.20
2019-04-10T13:33:50.984Z,2.20
2019-04-10T13:36:17.586Z,2.10
2019-04-10T13:38:44.426Z,2.20
2019-04-10T13:41:12.284Z,2.30
2019-04-10T13:43:38.703Z,2.10
2019-04-10T13:46:05.241Z,2.10
2019-04-10T13:48:31.790Z,2.20
2019-04-10T13:50:59.051Z,1.80
2019-04-10T13:53:26.019Z,1.90
2019-04-10T13:55:52.743Z,2.00
2019-04-10T13:58:19.299Z,1.70
2019-04-10T14:00:45.680Z,1.70
2019-04-10T14:03:12.369Z,1.70
2019-04-10T14:05:39.163Z,1.60
2019-04-10T14:08:06.170Z,1.60
2019-04-10T14:10:32.709Z,1.80
2019-04-10T14:12:59.704Z,1.80
2019-04-10T14:15:27.248Z,1.80
2019-04-10T14:17:54.204Z,1.50
2019-04-10T14:20:21.734Z,1.60
2019-04-10T14:22:59.271Z,1.80
2019-04-10T14:25:27.646Z,1.80
2019-04-10T14:27:54.346Z,1.70
2019-04-10T14:30:22.986Z,1.80
2019-04-10T14:32:51.177Z,1.80
2019-04-10T14:35:18.920Z,1.50
2019-04-10T14:37:45.456Z,1.40
2019-04-10T14:40:12.323Z,1.40
2019-04-10T14:42:38.940Z,1.40
2019-04-10T14:45:05.830Z,1.30
2019-04-10T14:47:33.718Z,1.10
2019-04-10T14:50:00.345Z,1.10
2019-04-10T14:52:27.330Z,1.20
2019-04-10T14:54:54.420Z,1.10
2019-04-10T14:57:20.976Z,1.10
2019-04-10T14:59:49.158Z,1.30
2019-04-10T15:02:16.687Z,1.30
2019-04-10T15:04:43.612Z,1.20
2019-04-10T15:07:10.189Z,1.30
2019-04-10T15:09:36.681Z,1.30
2019-04-10T15:12:03.141Z,1.20
2019-04-10T15:14:30.114Z,1.50
2019-04-10T15:17:01.808Z,1.20
2019-04-10T15:19:26.888Z,1.30
2019-04-10T15:21:54.020Z,1.10
2019-04-10T15:24:21.551Z,1.40
2019-04-10T15:26:48.835Z,1.60
2019-04-10T15:29:16.237Z,1.30
2019-04-10T15:31:43.912Z,1.00
2019-04-10T15:34:10.562Z,1.00
2019-04-10T15:36:37.180Z,1.00
2019-04-10T15:39:06.553Z,1.00
2019-04-10T15:41:33.041Z,1.20
2019-04-10T15:43:59.815Z,1.00
2019-04-10T15:46:26.886Z,1.10
2019-04-10T15:48:53.519Z,1.10
2019-04-10T15:51:20.409Z,1.10
2019-04-10T15:53:47.316Z,1.00
2019-04-10T15:56:13.952Z,1.20
2019-04-10T15:58:41.593Z,1.20
2019-04-10T16:01:09.998Z,0.90
2019-04-10T16:03:36.686Z,1.00
2019-04-10T16:06:03.961Z,1.20
2019-04-10T16:08:30.865Z,1.30
2019-04-10T16:11:01.741Z,1.00
2019-04-10T16:13:32.909Z,1.00
2019-04-10T16:16:01.357Z,1.00
2019-04-10T16:18:30.555Z,0.90
2019-04-10T16:20:57.043Z,1.10
2019-04-10T16:23:29.007Z,1.10
2019-04-10T16:25:55.701Z,1.10
2019-04-10T16:28:22.861Z,1.20
2019-04-10T16:30:51.281Z,1.10
2019-04-10T16:33:18.801Z,1.00
2019-04-10T16:35:46.223Z,0.90
2019-04-10T16:38:12.655Z,0.90
2019-04-10T16:40:40.127Z,0.90
2019-04-10T16:43:07.894Z,0.90
2019-04-10T16:45:34.877Z,0.90
2019-04-10T16:48:01.432Z,0.80
2019-04-10T16:50:27.913Z,0.80
2019-04-10T16:52:54.214Z,0.70
2019-04-10T16:55:20.789Z,0.60
2019-04-10T16:57:47.337Z,0.60
2019-04-10T17:00:16.434Z,0.60
2019-04-10T17:02:42.369Z,0.80
2019-04-10T17:05:09.356Z,0.80
2019-04-10T17:07:36.002Z,0.60
2019-04-10T17:10:14.041Z,0.60
2019-04-10T17:12:33.781Z,0.50
2019-04-10T17:15:00.346Z,0.60
2019-04-10T17:17:26.880Z,0.70
2019-04-10T17:19:57.226Z,0.70
2019-04-10T17:22:30.873Z,0.70
2019-04-10T17:24:49.961Z,0.60
2019-04-10T17:27:16.269Z,0.60
2019-04-10T17:29:42.680Z,0.50
2019-04-10T17:32:09.370Z,0.60
2019-04-10T17:34:35.622Z,0.60
2019-04-10T17:37:02.303Z,0.70
2019-04-10T17:39:28.795Z,0.60
2019-04-10T17:41:55.789Z,0.50
2019-04-10T17:44:23.418Z,0.50
2019-04-10T17:46:51.184Z,0.40
2019-04-10T17:49:17.634Z,0.50
2019-04-10T17:51:44.033Z,0.30
2019-04-10T17:54:11.690Z,0.40
2019-04-10T17:56:38.562Z,0.40
2019-04-10T17:59:05.842Z,0.50
2019-04-10T18:01:32.823Z,0.40
2019-04-10T18:04:02.130Z,0.50
2019-04-10T18:06:27.918Z,0.40
2019-04-10T18:08:54.494Z,0.40
2019-04-10T18:11:20.873Z,0.50
2019-04-10T18:13:47.396Z,0.50
2019-04-10T18:16:14.730Z,0.60
2019-04-10T18:18:42.163Z,0.50
2019-04-10T18:21:08.712Z,0.60
2019-04-10T18:23:35.620Z,0.60
2019-04-10T18:26:02.486Z,0.50
2019-04-10T18:28:31.076Z,0.60
2019-04-10T18:30:57.123Z,0.50
2019-04-10T18:33:24.470Z,0.60
2019-04-10T18:35:51.192Z,0.50
2019-04-10T18:38:17.594Z,0.50
2019-04-10T18:40:53.130Z,0.40
2019-04-10T18:43:12.353Z,0.40
2019-04-10T18:45:40.925Z,0.50
2019-04-10T18:48:08.269Z,0.40
2019-04-10T18:50:34.769Z,0.40
2019-04-10T18:53:01.585Z,0.50
2019-04-10T18:55:28.131Z,0.40
2019-04-10T18:57:54.923Z,0.40
2019-04-10T19:00:24.013Z,0.40
2019-04-10T19:03:07.546Z,0.30
2019-04-10T19:05:40.183Z,0.30
2019-04-10T19:08:07.075Z,0.30
2019-04-10T19:10:34.460Z,0.40
2019-04-10T19:13:01.377Z,0.30
2019-04-10T19:15:28.754Z,0.40
2019-04-10T19:17:55.315Z,0.30
2019-04-10T19:20:22.857Z,0.30
2019-04-10T19:22:50.580Z,0.30
2019-04-10T19:25:17.091Z,0.30
2019-04-10T19:27:44.448Z,0.30
2019-04-10T19:30:13.460Z,0.30
2019-04-10T19:32:39.992Z,0.40
2019-04-10T19:35:06.687Z,0.40
2019-04-10T19:37:33.424Z,0.30
2019-04-10T19:39:59.771Z,0.30
2019-04-10T19:42:27.058Z,0.20
2019-04-10T19:44:53.650Z,0.20
2019-04-10T19:47:20.419Z,0.30
2019-04-10T19:49:46.872Z,0.40
2019-04-10T19:52:14.126Z,0.40
2019-04-10T19:54:40.895Z,0.30
2019-04-10T19:57:07.458Z,0.40
2019-04-10T19:59:33.851Z,0.30
2019-04-10T20:02:00.339Z,0.30
2019-04-10T20:04:26.848Z,0.30
2019-04-10T20:06:54.331Z,0.20
2019-04-10T20:09:22.113Z,0.30
2019-04-10T20:11:52.566Z,0.30
2019-04-10T20:14:17.059Z,0.40
2019-04-10T20:16:43.770Z,0.30
2019-04-10T20:19:10.301Z,0.40
2019-04-10T20:21:36.928Z,0.30
2019-04-10T20:24:04.734Z,0.30
2019-04-10T20:26:31.502Z,0.30
2019-04-10T20:28:59.114Z,0.30
2019-04-10T20:31:27.483Z,0.30
2019-04-10T20:33:54.710Z,0.30
2019-04-10T20:36:22.717Z,0.20
2019-04-10T20:38:50.259Z,0.10
2019-04-10T20:41:16.782Z,0.20
2019-04-10T20:43:43.200Z,0.10
2019-04-10T20:46:09.903Z,0.20
2019-04-10T20:48:36.432Z,0.20
2019-04-10T20:51:04.036Z,0.30
2019-04-10T20:53:31.667Z,0.20
2019-04-10T20:55:58.064Z,0.20
2019-04-10T20:58:25.354Z,0.10
2019-04-10T21:00:51.753Z,0.10
2019-04-10T21:03:18.257Z,0.10
2019-04-10T21:05:44.758Z,0.10
2019-04-10T21:08:11.605Z,0.10
2019-04-10T21:10:38.686Z,0.10
2019-04-10T21:13:06.423Z,0.20
2019-04-10T21:15:33.422Z,0.30
2019-04-10T21:17:59.953Z,0.20
2019-04-10T21:20:27.226Z,0.10
2019-04-10T21:22:53.924Z,0.10
2019-04-10T21:25:21.129Z,0.30
2019-04-10T21:27:50.373Z,0.30
2019-04-10T21:30:34.736Z,0.20
2019-04-10T21:33:03.843Z,0.30
2019-04-10T21:35:32.758Z,0.20
2019-04-10T21:37:59.294Z,0.20
2019-04-10T21:40:27.126Z,0.20
2019-04-10T21:42:53.989Z,0.00
2019-04-10T21:45:20.410Z,0.10
2019-04-10T21:47:48.076Z,0.10
2019-04-10T21:50:15.173Z,0.20
2019-04-10T21:52:41.765Z,0.20
2019-04-10T21:55:08.260Z,0.20
2019-04-10T21:57:40.545Z,0.30
2019-04-10T22:00:08.018Z,0.30
2019-04-10T22:02:36.322Z,0.10
2019-04-10T22:05:05.988Z,0.10
2019-04-10T22:07:34.353Z,0.20
2019-04-10T22:10:03.535Z,0.20
2019-04-10T22:12:32.986Z,0.20
2019-04-10T22:14:58.474Z,0.20
2019-04-10T22:17:24.949Z,0.20
2019-04-10T22:19:52.784Z,0.20
2019-04-10T22:22:20.306Z,0.20
2019-04-10T22:24:46.865Z,0.20
2019-04-10T22:27:13.355Z,0.20
2019-04-10T22:29:39.736Z,0.10
2019-04-10T22:32:06.448Z,0.20
2019-04-10T22:34:34.032Z,0.10
2019-04-10T22:37:00.718Z,0.10
2019-04-10T22:39:27.479Z,0.10
2019-04-10T22:41:54.765Z,0.00
2019-04-10T22:44:33.694Z,0.10
2019-04-10T22:46:50.843Z,0.10
2019-04-10T22:49:18.061Z,0.00
2019-04-10T22:51:44.536Z,0.10
2019-04-10T22:54:11.795Z,0.10
2019-04-10T22:56:42.162Z,0.10
2019-04-10T22:59:08.573Z,0.10
2019-04-10T23:01:35.482Z,0.10
2019-04-10T23:04:02.086Z,0.10
2019-04-10T23:06:29.251Z,0.00
2019-04-10T23:08:55.900Z,0.10
2019-04-10T23:11:31.702Z,0.10
2019-04-10T23:13:50.632Z,0.10
2019-04-10T23:16:17.463Z,0.10
2019-04-10T23:18:44.010Z,0.10
2019-04-10T23:21:10.549Z,0.10
2019-04-10T23:23:36.927Z,0.10
2019-04-10T23:26:03.481Z,0.00
2019-04-10T23:28:29.867Z,0.00
2019-04-10T23:30:57.281Z,0.10
2019-04-10T23:33:23.905Z,0.10
2019-04-10T23:35:50.384Z,-0.10
2019-04-10T23:38:17.499Z,-0.10
2019-04-10T23:40:45.142Z,-0.10
2019-04-10T23:43:15.485Z,0.00
2019-04-10T23:45:40.220Z,-0.10
2019-04-10T23:48:06.829Z,-0.10
2019-04-10T23:50:34.399Z,0.00
2019-04-10T23:53:02.362Z,0.00
2019-04-10T23:55:28.866Z,0.00
2019-04-10T23:57:55.920Z,0.00
